Time;durP1;ratioP1;P1;durP2;ratioP2;P2;SDS_P1;SDS_P2;PMS_P1;PMS_P2;Temp;Humidity;BMP_temperature;BMP_pressure;BME280_temperature;BME280_humidity;BME280_pressure;Samples;Min_cycle;Max_cycle;Signal;HPM_P1;HPM_P2
2023/01/04 00:01:07;;;;;;;3.65;1.95;;;;;;;;;;5005642;28;20022;-82
2023/01/04 00:03:33;;;;;;;5.95;2.75;;;;;;;;;;4999557;28;20057;-82
2023/01/04 00:06:00;;;;;;;3.63;2.13;;;;;;;;;;5006737;28;20049;-81
2023/01/04 00:08:27;;;;;;;4.28;2.65;;;;;;;;;;5009774;28;20033;-79
2023/01/04 00:10:53;;;;;;;3.15;2.45;;;;;;;;;;5015159;28;20042;-79
2023/01/04 00:13:19;;;;;;;3.55;2.28;;;;;;;;;;5019903;28;20028;-82
2023/01/04 00:15:45;;;;;;;4.82;2.53;;;;;;;;;;5009963;28;20033;-80
2023/01/04 00:18:11;;;;;;;5.88;3.10;;;;;;;;;;5002695;28;20034;-80
2023/01/04 00:20:36;;;;;;;3.53;2.50;;;;;;;;;;5003850;28;20621;-79
2023/01/04 00:23:02;;;;;;;3.95;2.30;;;;;;;;;;5003065;28;20482;-78
2023/01/04 00:25:28;;;;;;;7.72;3.50;;;;;;;;;;4992517;28;20759;-81
2023/01/04 00:27:54;;;;;;;5.10;2.55;;;;;;;;;;4997499;28;20030;-80
2023/01/04 00:30:20;;;;;;;4.53;2.50;;;;;;;;;;5004340;28;20815;-80
2023/01/04 00:32:46;;;;;;;11.77;3.22;;;;;;;;;;5005785;28;20467;-79
2023/01/04 00:35:12;;;;;;;5.47;2.35;;;;;;;;;;4997018;28;20394;-81
2023/01/04 00:37:38;;;;;;;4.82;2.92;;;;;;;;;;4997323;28;20148;-80
2023/01/04 00:40:04;;;;;;;4.65;2.10;;;;;;;;;;4999760;28;20144;-79
2023/01/04 00:42:30;;;;;;;5.28;2.47;;;;;;;;;;4999418;28;20050;-81
2023/01/04 00:44:56;;;;;;;5.20;2.58;;;;;;;;;;5000426;28;20410;-80
2023/01/04 00:47:22;;;;;;;4.75;3.28;;;;;;;;;;5000413;28;22130;-78
2023/01/04 00:49:48;;;;;;;4.60;3.33;;;;;;;;;;4996255;28;20429;-79
2023/01/04 00:52:14;;;;;;;3.70;2.35;;;;;;;;;;4995628;28;20076;-81
2023/01/04 00:54:40;;;;;;;4.53;3.08;;;;;;;;;;4999957;28;20029;-81
2023/01/04 00:57:07;;;;;;;3.33;2.03;;;;;;;;;;4995906;28;20109;-82
2023/01/04 00:59:33;;;;;;;2.65;1.73;;;;;;;;;;5000918;28;20037;-78
2023/01/04 01:01:59;;;;;;;4.25;2.60;;;;;;;;;;5000443;28;20471;-81
2023/01/04 01:04:25;;;;;;;5.18;2.40;;;;;;;;;;4994366;28;20510;-81
2023/01/04 01:06:52;;;;;;;4.50;2.10;;;;;;;;;;5004375;28;20037;-79
2023/01/04 01:09:21;;;;;;;3.95;1.95;;;;;;;;;;4997484;28;20050;-78
2023/01/04 01:11:47;;;;;;;4.93;2.97;;;;;;;;;;5004342;28;20037;-79
2023/01/04 01:14:16;;;;;;;3.50;2.30;;;;;;;;;;5001299;28;20049;-79
2023/01/04 01:16:42;;;;;;;6.13;2.40;;;;;;;;;;4991461;28;20382;-78
2023/01/04 01:19:08;;;;;;;8.73;2.83;;;;;;;;;;5001612;28;20034;-79
2023/01/04 01:21:34;;;;;;;5.15;2.15;;;;;;;;;;4998656;28;20026;-80
2023/01/04 01:24:00;;;;;;;5.30;2.38;;;;;;;;;;4994605;28;20042;-80
2023/01/04 01:26:26;;;;;;;4.03;2.33;;;;;;;;;;4993023;28;20423;-79
2023/01/04 01:28:52;;;;;;;3.67;2.70;;;;;;;;;;4992700;28;20034;-79
2023/01/04 01:31:23;;;;;;;2.42;1.45;;;1.00;99.90;;;;;;5002648;28;20442;-80
2023/01/04 01:33:50;;;;;;;6.53;2.30;;;;;;;;;;4997693;28;20511;-80
2023/01/04 01:36:16;;;;;;;7.95;2.60;;;;;;;;;;5003740;28;20486;-82
2023/01/04 01:38:43;;;;;;;3.15;1.88;;;;;;;;;;5000599;28;20678;-80
2023/01/04 01:41:15;;;;;;;4.93;3.20;;;;;;;;;;5003647;28;20036;-79
2023/01/04 01:43:46;;;;;;;2.33;1.58;;;;;;;;;;5001711;28;20046;-78
2023/01/04 01:46:13;;;;;;;6.47;2.58;;;;;;;;;;4994517;28;20064;-80
2023/01/04 01:48:39;;;;;;;3.22;2.47;;;;;;;;;;4998946;28;20117;-80
2023/01/04 01:51:05;;;;;;;3.97;2.70;;;;;;;;;;5001133;28;20033;-82
2023/01/04 01:53:33;;;;;;;3.53;2.20;;;;;;;;;;5003142;28;20157;-78
2023/01/04 01:56:00;;;;;;;4.97;2.47;;;;;;;;;;5002828;28;20398;-79
2023/01/04 01:58:29;;;;;;;4.20;2.88;;;;;;;;;;5003590;28;20121;-81
2023/01/04 02:00:55;;;;;;;8.20;2.80;;;;;;;;;;4998375;28;20030;-80
2023/01/04 02:03:22;;;;;;;10.38;2.22;;;;;;;;;;4989263;28;20423;-80
2023/01/04 02:05:49;;;;;;;5.47;2.33;;;;;;;;;;5001275;28;20041;-80
2023/01/04 02:08:15;;;;;;;4.38;2.30;;;;;;;;;;4999652;28;20057;-79
2023/01/04 02:10:41;;;;;;;4.30;2.38;;;;;;;;;;4999069;28;20052;-80
2023/01/04 02:13:10;;;;;;;3.10;2.28;;;;;;;;;;5000720;28;20025;-78
2023/01/04 02:15:56;;;;;;;6.38;2.30;;;1.40;99.90;;;;;;4999855;28;20091;-79
2023/01/04 02:18:32;;;;;;;4.35;2.38;;;;;;;;;;4998532;28;20113;-78
2023/01/04 02:21:01;;;;;;;3.70;2.30;;;;;;;;;;4995826;28;20056;-77
2023/01/04 02:23:33;;;;;;;5.82;2.95;;;;;;;;;;4992441;28;20841;-79
2023/01/04 02:26:02;;;;;;;5.82;2.80;;;;;;;;;;4997684;28;20648;-78
2023/01/04 02:28:44;;;;;;;4.32;2.50;;;;;;;;;;4993116;28;20032;-78
2023/01/04 02:31:13;;;;;;;4.20;3.05;;;;;;;;;;5000130;28;20026;-78
2023/01/04 02:33:45;;;;;;;4.70;2.95;;;;;;;;;;5003052;28;20092;-81
2023/01/04 02:36:27;;;;;;;9.25;2.63;;;;;;;;;;5007386;28;20057;-82
2023/01/04 02:38:59;;;;;;;4.63;2.88;;;;;;;;;;5003631;28;20068;-77
2023/01/04 02:41:33;;;;;;;4.68;2.63;;;;;;;;;;4999253;28;20483;-80
2023/01/04 02:46:57;;;;;;;4.32;2.13;;;;;;;;;;5004114;28;20139;-80
2023/01/04 02:52:08;;;;;;;3.67;2.25;;;;;;;;;;5003043;28;20542;-79
2023/01/04 02:54:34;;;;;;;4.55;2.50;;;;;;;;;;4999244;28;20153;-81
2023/01/04 02:57:08;;;;;;;4.25;2.85;;;;;;;;;;5001548;28;20049;-78
2023/01/04 02:59:52;;;;;;;3.88;2.05;;;;;;;;;;5000296;28;20049;-78
2023/01/04 03:08:32;;;;;;;4.10;2.35;;;0.80;99.90;;;;;;5006210;28;20125;-80
2023/01/04 03:11:01;;;;;;;3.95;2.83;;;;;;;;;;5008168;28;20413;-80
2023/01/04 03:13:29;;;;;;;5.47;2.90;;;;;;;;;;5002411;28;20026;-79
2023/01/04 03:15:59;;;;;;;6.57;2.88;;;;;;;;;;5002433;28;20026;-77
2023/01/04 03:18:33;;;;;;;3.85;2.42;;;;;;;;;;5006657;28;20040;-80
2023/01/04 03:21:00;;;;;;;5.05;2.75;;;;;;;;;;4997238;28;20053;-78
2023/01/04 03:37:40;;;;;;;7.15;3.60;;;;;;;;;;5006219;28;20536;-80
2023/01/04 03:49:06;;;;;;;6.10;4.00;;;;;;;;;;5000072;28;20450;-79
2023/01/04 03:51:35;;;;;;;6.88;2.00;;;;;;;;;;5008041;28;20030;-78
2023/01/04 03:54:28;;;;;;;7.90;2.75;;;;;;;;;;5008280;28;20081;-81
2023/01/04 03:56:54;;;;;;;5.88;3.28;;;;;;;;;;5005777;28;20398;-79
2023/01/04 03:59:22;;;;;;;3.28;1.85;;;;;;;;;;4999956;28;20045;-78
2023/01/04 04:01:48;;;;;;;3.20;2.28;;;;;;;;;;5004450;28;20026;-81
2023/01/04 04:09:43;;;;;;;5.55;2.88;;;;;;;;;;5001443;28;20176;-81
2023/01/04 04:12:09;;;;;;;3.35;2.47;;;;;;;;;;5003715;28;20018;-79
2023/01/04 04:14:35;;;;;;;3.17;2.28;;;;;;;;;;5001594;28;20057;-81
2023/01/04 04:17:01;;;;;;;5.15;2.72;;;;;;;;;;5004715;28;20624;-81
2023/01/04 04:19:27;;;;;;;5.28;2.25;;;;;;;;;;5000473;28;20042;-78
2023/01/04 04:21:53;;;;;;;2.90;1.98;;;;;;;;;;4996453;28;20091;-80
2023/01/04 04:24:20;;;;;;;4.75;2.60;;;;;;;;;;4998581;28;20072;-80
2023/01/04 04:26:46;;;;;;;5.43;2.88;;;;;;;;;;5010317;28;20026;-79
2023/01/04 04:29:12;;;;;;;6.72;3.05;;;;;;;;;;5003074;28;20021;-80
2023/01/04 04:31:38;;;;;;;3.50;2.63;;;;;;;;;;5000887;28;20398;-79
2023/01/04 04:34:05;;;;;;;4.15;2.60;;;;;;;;;;5003540;28;20537;-81
2023/01/04 04:36:31;;;;;;;3.78;2.30;;;;;;;;;;4995785;28;20065;-81
2023/01/04 04:38:57;;;;;;;7.38;5.22;;;;;;;;;;5006098;28;20108;-80
2023/01/04 04:41:38;;;;;;;23.42;9.02;;;;;;;;;;4998208;28;20688;-79
2023/01/04 04:44:24;;;;;;;17.73;7.80;;;1.80;99.90;;;;;;4992681;28;20041;-81
2023/01/04 04:46:50;;;;;;;11.68;5.78;;;;;;;;;;5006184;28;20098;-82
2023/01/04 04:49:16;;;;;;;6.85;3.22;;;1.80;99.90;;;;;;5002610;28;20076;-79
2023/01/04 04:51:42;;;;;;;4.88;2.58;;;;;;;;;;5004238;28;20030;-81
2023/01/04 04:54:09;;;;;;;6.53;2.88;;;;;;;;;;5005145;28;20034;-78
2023/01/04 04:56:35;;;;;;;1.92;1.50;;;;;;;;;;5002975;28;20014;-78
2023/01/04 04:59:02;;;;;;;4.30;2.47;;;;;;;;;;4999404;28;20384;-81
2023/01/04 05:01:29;;;;;;;3.88;2.33;;;;;;;;;;4996785;28;20041;-81
2023/01/04 05:03:55;;;;;;;4.70;2.13;;;;;;;;;;4999443;28;20050;-80
2023/01/04 05:06:21;;;;;;;2.70;2.15;;;;;;;;;;5011361;28;20030;-81
2023/01/04 05:08:47;;;;;;;2.33;1.70;;;;;;;;;;5009401;28;20490;-79
2023/01/04 05:11:13;;;;;;;4.30;2.83;;;;;;;;;;5002794;28;20558;-81
2023/01/04 05:13:39;;;;;;;6.60;4.00;;;;;;;;;;5007423;28;20122;-81
2023/01/04 05:16:06;;;;;;;4.88;2.80;;;;;;;;;;5012820;28;20014;-79
2023/01/04 05:18:32;;;;;;;3.10;2.22;;;;;;;;;;5020027;28;20085;-79
2023/01/04 05:20:58;;;;;;;4.85;2.95;;;;;;;;;;5012099;28;20041;-81
2023/01/04 05:23:24;;;;;;;3.05;1.80;;;;;;;;;;5019228;28;20048;-78
2023/01/04 05:25:52;;;;;;;5.97;2.38;;;;;;;;;;5001933;28;20045;-81
2023/01/04 05:28:18;;;;;;;4.40;2.50;;;;;;;;;;5004393;28;20026;-78
2023/01/04 05:30:50;;;;;;;4.95;2.40;;;;;;;;;;4997660;28;20034;-79
2023/01/04 05:33:17;;;;;;;6.38;2.95;;;;;;;;;;5003088;28;20034;-77
2023/01/04 05:35:43;;;;;;;4.78;2.15;;;;;;;;;;5000409;28;21039;-79
2023/01/04 05:38:08;;;;;;;6.28;3.38;;;;;;;;;;4993258;28;20026;-82
2023/01/04 05:40:34;;;;;;;4.38;2.25;;;;;;;;;;4997765;28;20393;-81
2023/01/04 05:43:00;;;;;;;4.85;1.77;;;;;;;;;;5001663;28;20506;-79
2023/01/04 05:45:27;;;;;;;5.95;1.50;;;;;;;;;;4986145;28;20034;-82
2023/01/04 05:47:53;;;;;;;2.65;1.60;;;;;;;;;;5001005;28;20071;-80
2023/01/04 05:50:20;;;;;;;5.60;2.15;;;;;;;;;;4995973;28;20034;-80
2023/01/04 05:52:46;;;;;;;4.55;2.08;;;;;;;;;;4996142;28;20038;-80
2023/01/04 05:55:13;;;;;;;3.03;1.73;;;;;;;;;;4994677;28;20113;-79
2023/01/04 05:57:39;;;;;;;2.65;1.58;;;;;;;;;;4999357;28;20117;-80
2023/01/04 06:00:06;;;;;;;2.95;1.10;;;;;;;;;;4998529;28;20083;-79
2023/01/04 06:02:32;;;;;;;4.82;1.20;;;;;;;;;;4997383;28;20038;-80
2023/01/04 06:05:01;;;;;;;2.67;1.52;;;;;;;;;;4996127;28;20026;-79
2023/01/04 06:07:28;;;;;;;3.22;1.70;;;;;;;;;;5002254;28;20032;-81
2023/01/04 06:09:54;;;;;;;1.60;1.02;;;;;;;;;;5001799;28;20023;-81
2023/01/04 06:12:20;;;;;;;1.48;1.10;;;;;;;;;;5004886;28;20044;-81
2023/01/04 06:14:46;;;;;;;2.67;1.30;;;;;;;;;;4987161;28;20080;-81
2023/01/04 06:17:12;;;;;;;1.77;1.02;;;;;;;;;;4996750;28;20117;-80
2023/01/04 06:19:38;;;;;;;2.22;1.38;;;;;;;;;;5002947;28;20085;-80
2023/01/04 06:22:04;;;;;;;1.58;1.10;;;;;;;;;;4989645;28;20045;-81
2023/01/04 06:24:30;;;;;;;1.95;1.25;;;;;;;;;;4990347;28;20087;-78
2023/01/04 06:26:56;;;;;;;2.08;1.25;;;;;;;;;;4991208;28;20498;-79
2023/01/04 06:29:22;;;;;;;2.42;1.05;;;;;;;;;;4993692;28;20397;-80
2023/01/04 06:31:48;;;;;;;4.47;1.52;;;;;;;;;;4997768;28;20249;-83
2023/01/04 06:34:14;;;;;;;2.30;1.35;;;;;;;;;;4991533;28;20151;-81
2023/01/04 06:36:40;;;;;;;2.45;1.48;;;;;;;;;;4994621;28;20022;-82
2023/01/04 06:39:06;;;;;;;2.72;1.25;;;;;;;;;;5008932;28;20034;-82
2023/01/04 06:41:32;;;;;;;3.22;1.42;;;;;;;;;;5005534;28;20021;-80
2023/01/04 06:43:58;;;;;;;2.53;1.15;;;;;;;;;;5001638;28;20038;-77
2023/01/04 06:46:24;;;;;;;3.65;1.75;;;;;;;;;;5003739;28;20093;-80
2023/01/04 06:48:52;;;;;;;1.88;1.33;;;;;;;;;;5000016;28;20624;-83
2023/01/04 06:51:18;;;;;;;2.30;1.20;;;;;;;;;;5000914;28;20022;-81
2023/01/04 06:53:44;;;;;;;1.75;1.08;;;;;;;;;;5000313;28;20540;-78
2023/01/04 06:56:10;;;;;;;2.22;0.85;;;;;;;;;;5004324;28;20116;-81
2023/01/04 06:58:36;;;;;;;1.10;0.80;;;;;;;;;;4989295;28;20029;-80
2023/01/04 07:01:02;;;;;;;1.55;1.02;;;;;;;;;;4996763;28;20026;-81
2023/01/04 07:03:28;;;;;;;2.47;1.55;;;;;;;;;;5004001;28;20066;-79
2023/01/04 07:05:54;;;;;;;3.08;1.05;;;;;;;;;;5002910;28;20084;-80
2023/01/04 07:08:20;;;;;;;1.38;0.80;;;;;;;;;;5001056;28;20034;-82
2023/01/04 07:10:46;;;;;;;2.47;1.13;;;;;;;;;;4997841;28;20057;-81
2023/01/04 07:13:12;;;;;;;3.78;1.35;;;;;;;;;;5006297;28;20038;-81
2023/01/04 07:15:38;;;;;;;3.45;0.88;;;;;;;;;;4998729;28;20029;-82
2023/01/04 07:18:04;;;;;;;2.90;1.42;;;;;;;;;;5005035;28;20368;-82
2023/01/04 07:20:31;;;;;;;2.40;1.30;;;;;;;;;;4995111;28;20044;-79
2023/01/04 07:22:56;;;;;;;0.82;0.70;;;;;;;;;;4997684;28;20486;-82
2023/01/04 07:25:22;;;;;;;1.80;1.10;;;;;;;;;;5001841;28;20092;-83
2023/01/04 07:27:53;;;;;;;2.05;0.77;;;5.40;99.90;;;;;;5000177;28;20033;-79
2023/01/04 07:30:19;;;;;;;1.40;0.65;;;;;;;;;;5000683;28;20056;-80
2023/01/04 07:32:45;;;;;;;1.52;1.35;;;;;;;;;;5006577;28;20915;-82
2023/01/04 07:35:11;;;;;;;1.60;0.57;;;;;;;;;;5007429;28;20113;-81
2023/01/04 07:37:37;;;;;;;2.72;1.42;;;;;;;;;;4999347;28;20030;-84
2023/01/04 07:40:03;;;;;;;1.83;1.25;;;;;;;;;;5008487;28;20045;-82
2023/01/04 07:42:29;;;;;;;1.77;1.17;;;;;;;;;;5006907;28;20576;-81
2023/01/04 07:44:55;;;;;;;1.90;1.45;;;;;;;;;;5001976;28;20034;-81
2023/01/04 07:47:21;;;;;;;2.92;0.88;;;;;;;;;;4997687;28;20553;-81
2023/01/04 07:49:48;;;;;;;3.55;1.10;;;;;;;;;;5005329;28;20522;-81
2023/01/04 07:52:14;;;;;;;1.25;0.85;;;;;;;;;;5005518;28;20045;-82
2023/01/04 07:54:40;;;;;;;2.50;0.70;;;;;;;;;;5002717;28;20863;-81
2023/01/04 07:57:06;;;;;;;0.90;0.35;;;;;;;;;;5002161;28;20044;-82
2023/01/04 07:59:32;;;;;;;1.80;0.85;;;;;;;;;;4994013;28;20375;-81
2023/01/04 08:01:58;;;;;;;7.78;1.63;;;;;;;;;;4998078;28;20032;-81
2023/01/04 08:04:24;;;;;;;2.05;1.20;;;;;;;;;;5002986;28;20125;-81
2023/01/04 08:06:50;;;;;;;1.38;0.52;;;;;;;;;;5000485;28;20053;-79
2023/01/04 08:09:19;;;;;;;0.90;0.47;;;;;;;;;;5003437;28;20091;-80
2023/01/04 08:11:46;;;;;;;3.80;1.00;;;5.80;99.90;;;;;;4989243;28;20602;-82
2023/01/04 08:14:12;;;;;;;1.50;0.80;;;;;;;;;;5002168;28;20022;-84
2023/01/04 08:16:39;;;;;;;2.95;1.17;;;;;;;;;;5008746;28;20510;-82
2023/01/04 08:19:15;;;;;;;0.65;0.40;;;;;;;;;;5003997;28;20034;-81
2023/01/04 08:21:41;;;;;;;0.50;0.35;;;;;;;;;;5005880;28;20034;-82
2023/01/04 08:24:07;;;;;;;0.60;0.60;;;;;;;;;;5004555;28;20034;-83
2023/01/04 08:26:33;;;;;;;0.32;0.30;;;;;;;;;;5003311;28;20729;-83
2023/01/04 08:28:59;;;;;;;2.80;0.30;;;;;;;;;;5007555;28;20034;-83
2023/01/04 08:31:27;;;;;;;1.33;0.45;;;;;;;;;;5000774;28;20041;-82
2023/01/04 08:33:53;;;;;;;0.20;0.20;;;;;;;;;;5000305;28;20473;-84
2023/01/04 08:36:21;;;;;;;0.22;0.22;;;;;;;;;;4994879;28;20030;-84
2023/01/04 08:38:48;;;;;;;0.75;0.28;;;;;;;;;;5003472;28;20034;-84
2023/01/04 08:41:14;;;;;;;0.25;0.20;;;;;;;;;;5002432;28;20040;-81
2023/01/04 08:43:40;;;;;;;0.20;0.20;;;;;;;;;;5006843;28;20084;-84
2023/01/04 08:46:07;;;;;;;1.17;0.35;;;;;;;;;;4998795;28;20026;-83
2023/01/04 08:48:33;;;;;;;0.25;0.22;;;;;;;;;;5007274;28;20030;-81
2023/01/04 08:50:59;;;;;;;2.42;0.28;;;;;;;;;;5003154;28;20091;-83
2023/01/04 08:53:26;;;;;;;1.02;0.20;;;;;;;;;;5010400;28;20034;-84
2023/01/04 08:55:52;;;;;;;0.60;0.30;;;;;;;;;;5004422;28;20480;-85
2023/01/04 08:58:18;;;;;;;0.32;0.20;;;;;;;;;;4992063;28;20031;-85
2023/01/04 09:00:44;;;;;;;3.80;0.52;;;;;;;;;;4994563;28;20039;-82
2023/01/04 09:03:11;;;;;;;0.98;0.43;;;;;;;;;;5004332;28;20048;-84
2023/01/04 09:05:37;;;;;;;0.55;0.20;;;;;;;;;;5002954;28;20029;-84
2023/01/04 09:08:03;;;;;;;2.58;1.15;;;;;;;;;;5000276;28;20434;-83
2023/01/04 09:10:29;;;;;;;0.35;0.35;;;;;;;;;;5002006;28;20116;-82
2023/01/04 09:12:55;;;;;;;0.57;0.32;;;;;;;;;;5003599;28;20066;-86
2023/01/04 09:15:21;;;;;;;0.40;0.30;;;;;;;;;;5001273;28;20049;-84
2023/01/04 09:17:48;;;;;;;0.70;0.30;;;;;;;;;;4999522;28;20573;-84
2023/01/04 09:20:14;;;;;;;0.73;0.30;;;;;;;;;;4999656;28;20372;-85
2023/01/04 09:22:40;;;;;;;0.20;0.20;;;;;;;;;;5000425;28;20042;-81
2023/01/04 09:25:06;;;;;;;0.57;0.30;;;;;;;;;;5022024;28;20038;-84
2023/01/04 09:27:33;;;;;;;0.30;0.20;;;;;;;;;;5002978;28;20034;-83
2023/01/04 09:29:59;;;;;;;0.85;0.40;;;;;;;;;;5004206;28;20030;-79
2023/01/04 09:32:26;;;;;;;0.40;0.20;;;;;;;;;;4999648;28;20027;-80
2023/01/04 09:34:52;;;;;;;2.90;0.80;;;;;;;;;;4998602;28;20037;-80
2023/01/04 09:37:18;;;;;;;0.80;0.30;;;;;;;;;;5007541;28;20029;-83
2023/01/04 09:39:46;;;;;;;0.28;0.28;;;;;;;;;;4995720;28;20026;-80
2023/01/04 09:42:30;;;;;;;0.30;0.25;;;7.80;99.90;;;;;;5006393;28;20030;-81
2023/01/04 09:45:01;;;;;;;0.75;0.30;;;;;;;;;;5009606;28;20528;-80
2023/01/04 09:47:39;;;;;;;1.60;0.40;;;;;;;;;;5004308;28;20052;-83
2023/01/04 09:50:09;;;;;;;0.68;0.35;;;;;;;;;;4999498;28;20058;-81
2023/01/04 09:52:55;;;;;;;0.85;0.28;;;;;;;;;;5012974;28;20121;-83
2023/01/04 09:55:41;;;;;;;0.20;0.20;;;8.00;99.90;;;;;;4996293;28;20033;-85
2023/01/04 09:58:12;;;;;;;0.35;0.20;;;;;;;;;;5000081;28;20135;-84
2023/01/04 10:00:44;;;;;;;0.25;0.20;;;;;;;;;;4989622;28;20031;-82
2023/01/04 10:03:12;;;;;;;0.17;0.17;;;;;;;;;;5006419;28;20172;-84
2023/01/04 10:05:39;;;;;;;0.95;0.50;;;7.30;99.90;;;;;;5008289;28;20030;-82
2023/01/04 10:08:12;;;;;;;0.75;0.65;;;;;;;;;;5009582;28;20030;-82
2023/01/04 10:10:56;;;;;;;2.10;0.55;;;;;;;;;;4996078;28;20067;-82
2023/01/04 10:13:29;;;;;;;0.98;0.30;;;;;;;;;;5005308;28;20072;-82
2023/01/04 10:16:20;;;;;;;0.47;0.20;;;8.00;99.90;;;;;;5007210;28;20034;-82
2023/01/04 10:18:51;;;;;;;0.57;0.35;;;;;;;;;;5003151;28;20041;-83
2023/01/04 10:21:34;;;;;;;0.65;0.25;;;8.20;99.90;;;;;;5004644;28;20079;-84
2023/01/04 10:24:13;;;;;;;0.20;0.20;;;8.10;99.90;;;;;;5011716;28;20072;-80
2023/01/04 10:26:42;;;;;;;0.15;0.15;;;;;;;;;;5018574;28;20041;-82
2023/01/04 10:29:26;;;;;;;0.75;0.20;;;;;;;;;;5001551;28;20403;-83
2023/01/04 10:31:56;;;;;;;0.77;0.20;;;;;;;;;;5009703;28;20025;-83
2023/01/04 10:34:37;;;;;;;1.02;0.38;;;8.20;99.90;;;;;;5024576;28;20407;-82
2023/01/04 10:37:04;;;;;;;0.57;0.20;;;;;;;;;;5024330;28;20048;-81
2023/01/04 10:39:34;;;;;;;0.47;0.22;;;8.20;99.90;;;;;;5016789;28;20030;-82
2023/01/04 10:42:09;;;;;;;0.57;0.40;;;;;;;;;;5024674;28;20046;-82
2023/01/04 10:44:45;;;;;;;0.32;0.20;;;;;;;;;;5013722;28;20041;-84
2023/01/04 10:47:15;;;;;;;0.50;0.20;;;;;;;;;;4999193;28;20045;-79
2023/01/04 10:49:44;;;;;;;0.70;0.40;;;;;;;;;;5008052;28;20030;-80
2023/01/04 10:52:14;;;;;;;0.88;0.32;;;;;;;;;;5005750;28;20098;-80
2023/01/04 10:54:49;;;;;;;0.73;0.20;;;;;;;;;;5005692;28;20097;-81
2023/01/04 10:57:42;;;;;;;2.45;0.43;;;8.50;99.90;;;;;;5012165;28;20061;-81
2023/01/04 11:00:18;;;;;;;4.22;0.43;;;8.50;99.90;;;;;;5004435;28;20084;-82
2023/01/04 11:02:47;;;;;;;0.68;0.40;;;;;;;;;;4997330;28;20037;-80
2023/01/04 11:05:32;;;;;;;0.68;0.20;;;;;;;;;;5008020;28;20026;-78
2023/01/04 11:08:02;;;;;;;0.50;0.30;;;;;;;;;;5006507;28;20061;-83
2023/01/04 11:10:30;;;;;;;1.15;0.43;;;;;;;;;;5005349;28;20036;-80
2023/01/04 11:12:56;;;;;;;0.30;0.25;;;;;;;;;;4998616;28;20076;-80
2023/01/04 11:15:22;;;;;;;2.10;0.40;;;;;;;;;;5001837;28;20382;-81
2023/01/04 11:17:49;;;;;;;1.67;0.45;;;8.80;99.90;;;;;;5000398;28;20034;-82
2023/01/04 11:20:15;;;;;;;0.35;0.20;;;;;;;;;;5001347;28;20038;-80
2023/01/04 11:22:47;;;;;;;2.03;0.30;;;;;;;;;;4999464;28;20038;-83
2023/01/04 11:25:18;;;;;;;0.85;0.47;;;8.40;99.90;;;;;;5008254;28;20123;-82
2023/01/04 11:27:50;;;;;;;3.47;0.50;;;8.40;99.90;;;;;;4997520;28;20030;-81
2023/01/04 11:30:21;;;;;;;0.40;0.30;;;;;;;;;;5006658;28;20022;-81
2023/01/04 11:32:51;;;;;;;0.85;0.25;;;8.50;99.90;;;;;;5007581;28;20038;-84
2023/01/04 11:35:35;;;;;;;2.55;0.22;;;;;;;;;;5008320;28;20017;-82
2023/01/04 11:38:29;;;;;;;1.50;0.43;;;8.70;99.90;;;;;;5005091;28;20041;-83
2023/01/04 11:40:59;;;;;;;0.50;0.40;;;;;;;;;;5005764;28;20046;-82
2023/01/04 11:43:26;;;;;;;0.30;0.30;;;;;;;;;;4990138;28;20043;-82
2023/01/04 11:45:54;;;;;;;0.70;0.40;;;;;;;;;;4999128;28;20029;-83
2023/01/04 11:48:30;;;;;;;1.27;0.57;;;;;;;;;;5001590;28;20499;-82
2023/01/04 11:50:56;;;;;;;1.67;0.63;;;;;;;;;;4999876;28;20402;-81
2023/01/04 11:53:24;;;;;;;1.70;0.75;;;;;;;;;;4998447;28;20038;-83
2023/01/04 11:55:51;;;;;;;4.38;0.90;;;8.80;99.90;;;;;;5000458;28;20085;-83
2023/01/04 11:58:18;;;;;;;0.38;0.25;;;;;;;;;;5004916;28;20045;-82
2023/01/04 12:00:56;;;;;;;0.50;0.35;;;8.80;99.90;;;;;;5011904;28;20025;-83
2023/01/04 12:03:30;;;;;;;0.77;0.50;;;;;;;;;;5011627;28;20137;-83
2023/01/04 12:05:57;;;;;;;2.22;0.28;;;8.70;99.90;;;;;;5012881;28;20128;-82
2023/01/04 12:08:23;;;;;;;0.77;0.45;;;;;;;;;;5008629;28;20036;-84
2023/01/04 12:10:49;;;;;;;1.48;0.45;;;;;;;;;;5004151;28;20184;-85
2023/01/04 12:13:15;;;;;;;1.45;0.20;;;;;;;;;;5008178;28;20105;-82
2023/01/04 12:15:44;;;;;;;1.80;0.40;;;;;;;;;;5006437;28;20060;-82
2023/01/04 12:18:16;;;;;;;6.25;0.40;;;;;;;;;;5002262;28;20058;-82
2023/01/04 12:20:41;;;;;;;0.10;0.10;;;;;;;;;;5011337;28;20053;-81
2023/01/04 12:23:09;;;;;;;2.13;0.43;;;;;;;;;;4999642;28;20283;-82
2023/01/04 12:25:49;;;;;;;2.30;0.50;;;8.90;99.90;;;;;;5006559;28;20030;-79
2023/01/04 12:28:28;;;;;;;0.73;0.20;;;;;;;;;;4997582;28;20494;-81
2023/01/04 12:30:54;;;;;;;0.47;0.20;;;;;;;;;;4988817;28;20038;-81
2023/01/04 12:33:30;;;;;;;0.35;0.35;;;;;;;;;;4987378;28;20031;-80
2023/01/04 12:36:01;;;;;;;1.00;0.40;;;;;;;;;;4996913;28;20035;-83
2023/01/04 12:38:45;;;;;;;0.15;0.15;;;;;;;;;;4992190;28;20029;-81
2023/01/04 12:41:11;;;;;;;0.20;0.20;;;;;;;;;;4990490;28;20435;-81
2023/01/04 12:43:38;;;;;;;0.22;0.20;;;;;;;;;;4989197;28;20042;-81
2023/01/04 12:49:30;;;;;;;0.47;0.25;;;8.80;99.90;;;;;;4979210;28;20026;-82
2023/01/04 12:52:23;;;;;;;5.35;0.50;;;;;;;;;;4957886;28;20076;-81
2023/01/04 12:54:49;;;;;;;0.63;0.50;;;;;;;;;;4979834;28;20400;-82
2023/01/04 12:57:18;;;;;;;0.52;0.22;;;;;;;;;;4980464;28;20133;-84
2023/01/04 13:00:00;;;;;;;0.60;0.22;;;;;;;;;;4984619;28;20452;-85
2023/01/04 13:02:46;;;;;;;1.80;0.30;;;;;;;;;;4986410;28;20038;-80
2023/01/04 13:05:18;;;;;;;0.70;0.28;;;;;;;;;;4985941;28;21963;-82
2023/01/04 13:07:49;;;;;;;1.42;0.65;;;;;;;;;;4984700;28;20037;-82
2023/01/04 13:10:27;;;;;;;0.10;0.10;;;;;;;;;;4985384;28;20030;-81
2023/01/04 13:13:02;;;;;;;0.30;0.20;;;;;;;;;;4978363;28;20034;-81
2023/01/04 13:15:31;;;;;;;0.95;0.40;;;;;;;;;;4986132;28;20030;-82
2023/01/04 13:17:57;;;;;;;0.10;0.10;;;;;;;;;;4986848;28;20030;-80
2023/01/04 13:20:26;;;;;;;0.20;0.15;;;9.70;99.90;;;;;;4985027;28;20216;-80
2023/01/04 13:22:54;;;;;;;0.35;0.20;;;8.80;99.90;;;;;;4977306;28;20043;-79
2023/01/04 13:25:22;;;;;;;0.38;0.30;;;9.60;99.90;;;;;;4983694;28;20031;-80
2023/01/04 13:28:00;;;;;;;0.15;0.10;;;8.50;99.90;;;;;;4987452;28;20030;-80
2023/01/04 13:30:30;;;;;;;7.53;0.30;;;;;;;;;;4986740;28;20038;-81
2023/01/04 13:32:59;;;;;;;0.10;0.10;;;;;;;;;;4989002;28;20102;-80
2023/01/04 13:35:25;;;;;;;0.30;0.30;;;;;;;;;;4989279;28;20099;-82
2023/01/04 13:37:51;;;;;;;0.17;0.13;;;;;;;;;;4970272;28;20125;-83
2023/01/04 13:40:23;;;;;;;0.30;0.22;;;;;;;;;;4983747;28;20229;-82
2023/01/04 13:43:03;;;;;;;0.35;0.20;;;;;;;;;;4984970;28;20114;-82
2023/01/04 13:45:32;;;;;;;1.65;0.30;;;;;;;;;;4983965;28;20046;-84
2023/01/04 13:48:00;;;;;;;0.32;0.13;;;;;;;;;;4976624;28;20104;-83
2023/01/04 13:50:29;;;;;;;4.43;0.20;;;;;;;;;;4985182;28;20080;-84
2023/01/04 13:52:56;;;;;;;1.85;1.15;;;;;;;;;;4978812;28;20138;-81
2023/01/04 13:55:27;;;;;;;1.45;0.30;;;8.60;99.90;;;;;;4979055;28;20033;-84
2023/01/04 13:57:54;;;;;;;5.50;0.40;;;;;;;;;;4977657;28;20089;-82
2023/01/04 14:00:21;;;;;;;1.45;0.22;;;;;;;;;;4972856;28;20061;-83
2023/01/04 14:02:47;;;;;;;1.00;0.55;;;;;;;;;;4972913;28;20038;-83
2023/01/04 14:05:17;;;;;;;0.70;0.32;;;;;;;;;;4978139;28;20042;-84
2023/01/04 14:07:43;;;;;;;0.40;0.30;;;;;;;;;;4996817;28;20029;-85
2023/01/04 14:10:17;;;;;;;0.70;0.30;;;8.70;99.90;;;;;;4991441;28;20026;-84
2023/01/04 14:12:45;;;;;;;1.05;0.45;;;8.70;99.90;;;;;;4992208;28;20054;-84
2023/01/04 14:15:14;;;;;;;0.30;0.20;;;;;;;;;;4988991;28;20034;-84
2023/01/04 14:17:46;;;;;;;7.05;0.30;;;;;;;;;;4995304;28;20438;-83
2023/01/04 14:20:12;;;;;;;0.22;0.22;;;;;;;;;;4983564;28;20173;-85
2023/01/04 14:22:38;;;;;;;0.20;0.20;;;;;;;;;;4981317;28;20046;-82
2023/01/04 14:25:28;;;;;;;1.05;0.25;;;9.10;99.90;;;;;;4988472;28;20030;-83
2023/01/04 14:28:14;;;;;;;1.23;0.45;;;;;;;;;;4984208;28;20046;-84
2023/01/04 14:30:40;;;;;;;1.75;0.40;;;;;;;;;;4990374;28;20398;-81
2023/01/04 14:33:14;;;;;;;4.25;0.80;;;;;;;;;;4995208;28;20037;-85
2023/01/04 14:35:40;;;;;;;2.10;0.57;;;;;;;;;;5000644;28;20673;-81
2023/01/04 14:38:11;;;;;;;1.08;0.43;;;;;;;;;;4991755;28;20082;-82
2023/01/04 14:40:38;;;;;;;0.47;0.32;;;;;;;;;;4995226;28;20758;-84
2023/01/04 14:43:33;;;;;;;0.50;0.20;;;9.40;99.90;;;;;;4995640;28;20042;-82
2023/01/04 14:45:59;;;;;;;1.30;0.17;;;;;;;;;;4996055;28;20088;-82
2023/01/04 14:48:25;;;;;;;0.88;0.30;;;;;;;;;;4995025;28;20034;-81
2023/01/04 14:50:51;;;;;;;1.08;0.30;;;;;;;;;;4991139;28;20111;-82
2023/01/04 14:53:20;;;;;;;0.43;0.20;;;;;;;;;;4997672;28;20061;-82
2023/01/04 14:55:46;;;;;;;0.40;0.20;;;;;;;;;;4993623;28;20030;-84
2023/01/04 14:58:11;;;;;;;4.03;0.75;;;;;;;;;;4994226;28;20038;-84
2023/01/04 15:00:37;;;;;;;0.75;0.40;;;;;;;;;;4993408;28;20088;-84
2023/01/04 15:03:03;;;;;;;1.13;0.32;;;;;;;;;;4991578;28;20039;-83
2023/01/04 15:05:30;;;;;;;2.00;0.93;;;;;;;;;;4994219;28;20620;-83
2023/01/04 15:07:56;;;;;;;0.82;0.50;;;;;;;;;;4998213;28;20259;-83
2023/01/04 15:10:26;;;;;;;0.75;0.38;;;;;;;;;;4993608;28;20029;-82
2023/01/04 15:12:53;;;;;;;0.63;0.20;;;;;;;;;;4991511;28;20098;-83
2023/01/04 15:15:19;;;;;;;1.55;0.60;;;;;;;;;;5001025;28;20612;-83
2023/01/04 15:17:46;;;;;;;0.50;0.30;;;8.60;99.90;;;;;;4997139;28;20070;-84
2023/01/04 15:20:12;;;;;;;3.78;0.60;;;;;;;;;;4994465;28;20061;-82
2023/01/04 15:22:39;;;;;;;0.90;0.30;;;9.20;99.90;;;;;;4992674;28;20066;-81
2023/01/04 15:25:06;;;;;;;1.00;0.40;;;;;;;;;;4997483;28;20391;-82